createdAt,value
2022-09-03T00:00:02.137Z,100798.59
2022-09-03T00:02:34.553Z,100803.97
2022-09-03T00:05:04.880Z,100808.88
2022-09-03T00:07:36.931Z,100801.47
2022-09-03T00:10:08.067Z,100794.19
2022-09-03T00:12:38.431Z,100793.75
2022-09-03T00:15:06.551Z,100785.69
2022-09-03T00:17:35.832Z,100790.69
2022-09-03T00:20:06.005Z,100789.22
2022-09-03T00:22:36.882Z,100787.53
2022-09-03T00:25:04.791Z,100792.72
2022-09-03T00:27:33.323Z,100794.75
2022-09-03T00:30:01.471Z,100794.75
2022-09-03T00:32:29.428Z,100780.91
2022-09-03T00:34:58.248Z,100788.94
2022-09-03T00:37:24.568Z,100788.50
2022-09-03T00:39:55.493Z,100798.41
2022-09-03T00:42:27.029Z,100792.59
2022-09-03T00:44:59.739Z,100797.38
2022-09-03T00:47:29.796Z,100800.84
2022-09-03T00:50:02.847Z,100805.38
2022-09-03T00:52:37.939Z,100788.84
2022-09-03T00:55:10.181Z,100792.34
2022-09-03T00:57:41.198Z,100795.84
2022-09-03T01:00:09.420Z,100794.19
2022-09-03T01:02:41.838Z,100795.00
2022-09-03T01:05:11.338Z,100791.28
2022-09-03T01:07:40.930Z,100780.94
2022-09-03T01:10:15.359Z,100790.00
2022-09-03T01:12:46.615Z,100782.97
2022-09-03T01:15:15.374Z,100777.38
2022-09-03T01:17:47.210Z,100782.13
2022-09-03T01:20:46.587Z,100790.75
2022-09-03T01:23:27.784Z,100789.72
2022-09-03T01:26:03.106Z,100801.28
2022-09-03T01:28:38.723Z,100789.09
2022-09-03T01:31:08.732Z,100790.31
2022-09-03T01:33:37.702Z,100791.56
2022-09-03T01:36:09.535Z,100794.81
2022-09-03T01:41:13.901Z,100787.13
2022-09-03T01:43:45.714Z,100790.81
2022-09-03T01:46:17.047Z,100789.81
2022-09-03T01:48:44.640Z,100780.72
2022-09-03T01:51:15.715Z,100783.81
2022-09-03T01:53:52.034Z,100791.44
2022-09-03T01:56:27.280Z,100786.91
2022-09-03T01:58:59.127Z,100786.84
2022-09-03T02:01:29.234Z,100786.41
2022-09-03T02:03:57.139Z,100788.47
2022-09-03T02:06:23.443Z,100785.13
2022-09-03T02:08:49.751Z,100777.47
2022-09-03T02:11:16.061Z,100777.91
2022-09-03T02:13:44.314Z,100778.91
2022-09-03T02:16:13.964Z,100775.97
2022-09-03T02:18:42.366Z,100783.00
2022-09-03T02:21:09.142Z,100776.34
2022-09-03T02:23:35.511Z,100777.78
2022-09-03T02:26:02.621Z,100782.69
2022-09-03T02:28:30.640Z,100782.47
2022-09-03T02:30:57.363Z,100786.16
2022-09-03T02:33:25.160Z,100782.66
2022-09-03T02:35:51.648Z,100787.59
2022-09-03T02:38:19.333Z,100783.66
2022-09-03T02:40:46.053Z,100780.09
2022-09-03T02:43:14.563Z,100778.47
2022-09-03T02:45:42.911Z,100774.13
2022-09-03T02:48:10.083Z,100779.03
2022-09-03T02:50:41.734Z,100774.88
2022-09-03T02:53:08.323Z,100772.00
2022-09-03T02:55:34.763Z,100772.00
2022-09-03T02:58:01.074Z,100769.13
2022-09-03T03:00:27.424Z,100772.56
2022-09-03T03:02:54.921Z,100775.66
2022-09-03T03:05:26.417Z,100778.16
2022-09-03T03:07:54.064Z,100769.28
2022-09-03T03:10:20.371Z,100771.94
2022-09-03T03:12:46.700Z,100776.28
2022-09-03T03:15:13.024Z,100772.31
2022-09-03T03:17:39.349Z,100776.47
2022-09-03T03:20:06.094Z,100777.88
2022-09-03T03:22:32.427Z,100781.34
2022-09-03T03:25:00.104Z,100766.84
2022-09-03T03:27:26.419Z,100769.53
2022-09-03T03:29:52.724Z,100775.91
2022-09-03T03:32:19.039Z,100775.25
2022-09-03T03:34:45.360Z,100772.56
2022-09-03T03:37:11.672Z,100770.09
2022-09-03T03:39:38.013Z,100770.53
2022-09-03T03:42:05.762Z,100772.16
2022-09-03T03:44:32.075Z,100776.66
2022-09-03T03:46:58.390Z,100773.72
2022-09-03T03:49:24.691Z,100775.44
2022-09-03T03:51:51.006Z,100772.34
2022-09-03T03:54:18.942Z,100773.53
2022-09-03T03:56:45.250Z,100772.88
2022-09-03T03:59:23.128Z,100774.56
2022-09-03T04:01:49.455Z,100772.47
2022-09-03T04:04:15.954Z,100774.50
2022-09-03T04:06:42.334Z,100776.34
2022-09-03T04:09:08.721Z,100768.47
2022-09-03T04:11:35.023Z,100771.50
2022-09-03T04:14:02.448Z,100772.53
2022-09-03T04:16:30.172Z,100773.75
2022-09-03T04:18:57.077Z,100772.72
2022-09-03T04:21:24.271Z,100784.00
2022-09-03T04:23:52.357Z,100774.31
2022-09-03T04:26:20.379Z,100783.00
2022-09-03T04:28:47.039Z,100773.66
2022-09-03T04:31:14.926Z,100769.50
2022-09-03T04:33:42.642Z,100772.38
2022-09-03T04:36:10.570Z,100771.75
2022-09-03T04:38:38.423Z,100776.66
2022-09-03T04:41:04.755Z,100776.66
2022-09-03T04:43:31.090Z,100764.47
2022-09-03T04:45:57.746Z,100776.84
2022-09-03T04:48:24.240Z,100778.84
2022-09-03T04:50:52.043Z,100781.72
2022-09-03T04:53:18.380Z,100774.53
2022-09-03T04:55:44.686Z,100773.69
2022-09-03T04:58:10.983Z,100773.50
2022-09-03T05:00:37.761Z,100773.50
2022-09-03T05:03:04.354Z,100765.94
2022-09-03T05:05:30.715Z,100777.47
2022-09-03T05:07:59.442Z,100772.97
2022-09-03T05:10:25.853Z,100773.59
2022-09-03T05:12:57.986Z,100771.19
2022-09-03T05:15:24.302Z,100776.63
2022-09-03T05:17:50.625Z,100772.81
2022-09-03T05:20:17.087Z,100769.78
2022-09-03T05:22:43.393Z,100777.03
2022-09-03T05:25:11.153Z,100779.78
2022-09-03T05:27:37.476Z,100770.16
2022-09-03T05:30:04.070Z,100776.59
2022-09-03T05:32:30.795Z,100774.00
2022-09-03T05:34:57.074Z,100771.34
2022-09-03T05:37:23.400Z,100775.78
2022-09-03T05:39:49.765Z,100770.47
2022-09-03T05:42:17.638Z,100770.50
2022-09-03T05:44:43.969Z,100781.09
2022-09-03T05:47:10.311Z,100779.09
2022-09-03T05:49:37.160Z,100773.97
2022-09-03T05:52:03.470Z,100773.84
2022-09-03T05:54:29.769Z,100778.41
2022-09-03T05:56:56.083Z,100777.84
2022-09-03T05:59:23.729Z,100773.06
2022-09-03T06:01:51.647Z,100779.56
2022-09-03T06:04:20.446Z,100776.91
2022-09-03T06:06:47.818Z,100772.56
2022-09-03T06:09:14.779Z,100780.03
2022-09-03T06:11:41.227Z,100780.84
2022-09-03T06:14:08.970Z,100787.88
2022-09-03T06:16:37.955Z,100788.94
2022-09-03T06:19:04.901Z,100787.97
2022-09-03T06:21:31.234Z,100783.44
2022-09-03T06:23:58.463Z,100783.06
2022-09-03T06:26:26.792Z,100785.00
2022-09-03T06:28:53.135Z,100778.59
2022-09-03T06:31:19.780Z,100778.22
2022-09-03T06:33:47.791Z,100785.50
2022-09-03T06:36:14.904Z,100779.72
2022-09-03T06:38:41.754Z,100789.25
2022-09-03T06:41:09.302Z,100788.41
2022-09-03T06:43:36.299Z,100788.22
2022-09-03T06:46:04.116Z,100785.94
2022-09-03T06:48:31.424Z,100788.69
2022-09-03T06:50:59.844Z,100789.53
2022-09-03T06:53:26.639Z,100784.97
2022-09-03T06:55:59.481Z,100794.50
2022-09-03T06:58:28.663Z,100787.47
2022-09-03T07:01:00.760Z,100787.66
2022-09-03T07:03:27.119Z,100794.25
2022-09-03T07:05:53.431Z,100795.28
2022-09-03T07:08:21.101Z,100793.66
2022-09-03T07:10:47.399Z,100791.19
2022-09-03T07:13:13.727Z,100793.88
2022-09-03T07:15:40.192Z,100781.88
2022-09-03T07:18:06.528Z,100783.56
2022-09-03T07:20:33.353Z,100780.91
2022-09-03T07:22:59.634Z,100782.53
2022-09-03T07:25:27.300Z,100786.47
2022-09-03T07:27:53.645Z,100784.59
2022-09-03T07:30:19.977Z,100782.94
2022-09-03T07:32:46.525Z,100783.78
2022-09-03T07:35:13.007Z,100780.47
2022-09-03T07:37:40.535Z,100781.72
2022-09-03T07:40:07.446Z,100784.19
2022-09-03T07:42:35.114Z,100787.09
2022-09-03T07:45:01.464Z,100786.66
2022-09-03T07:47:27.798Z,100787.06
2022-09-03T07:49:54.133Z,100788.91
2022-09-03T07:52:20.426Z,100784.72
2022-09-03T07:54:46.737Z,100786.81
2022-09-03T07:57:13.054Z,100789.06
2022-09-03T07:59:40.687Z,100793.38
2022-09-03T08:02:07.010Z,100798.41
2022-09-03T08:04:33.346Z,100795.88
2022-09-03T08:06:59.670Z,100797.31
2022-09-03T08:09:25.992Z,100799.41
2022-09-03T08:11:52.320Z,100798.56
2022-09-03T08:14:18.653Z,100805.16
2022-09-03T08:16:46.789Z,100808.00
2022-09-03T08:19:13.624Z,100812.72
2022-09-03T08:21:39.962Z,100811.69
2022-09-03T08:24:06.383Z,100814.16
2022-09-03T08:26:33.906Z,100811.41
2022-09-03T08:29:00.263Z,100811.63
2022-09-03T08:31:26.762Z,100814.94
2022-09-03T08:33:55.223Z,100813.91
2022-09-03T08:36:22.578Z,100813.69
2022-09-03T08:38:49.504Z,100813.47
2022-09-03T08:41:19.779Z,100816.56
2022-09-03T08:43:55.872Z,100814.88
2022-09-03T08:46:24.540Z,100823.72
2022-09-03T08:48:54.872Z,100820.94
2022-09-03T08:51:23.649Z,100819.97
2022-09-03T08:53:51.928Z,100814.88
2022-09-03T08:56:21.728Z,100813.56
2022-09-03T08:58:48.069Z,100813.41
2022-09-03T09:01:21.783Z,100816.38
2022-09-03T09:03:53.091Z,100817.91
2022-09-03T09:06:26.378Z,100824.47
2022-09-03T09:08:56.930Z,100827.34
2022-09-03T09:11:29.495Z,100822.69
2022-09-03T09:13:57.987Z,100821.81
2022-09-03T09:16:29.393Z,100826.22
2022-09-03T09:18:59.532Z,100825.09
2022-09-03T09:21:29.963Z,100817.53
2022-09-03T09:24:00.169Z,100821.81
2022-09-03T09:26:26.578Z,100820.38
2022-09-03T09:28:57.197Z,100820.41
2022-09-03T09:31:23.810Z,100826.19
2022-09-03T09:33:50.262Z,100816.69
2022-09-03T09:36:17.535Z,100819.72
2022-09-03T09:38:45.466Z,100814.56
2022-09-03T09:41:12.473Z,100815.13
2022-09-03T09:43:38.906Z,100818.06
2022-09-03T09:46:12.288Z,100812.78
2022-09-03T09:48:39.497Z,100812.91
2022-09-03T09:51:07.088Z,100815.84
2022-09-03T09:53:33.382Z,100813.03
2022-09-03T09:56:01.207Z,100806.34
2022-09-03T09:58:28.088Z,100816.13
2022-09-03T10:00:55.617Z,100816.72
2022-09-03T10:03:21.934Z,100821.84
2022-09-03T10:05:58.081Z,100812.56
2022-09-03T10:08:24.458Z,100816.63
2022-09-03T10:10:51.191Z,100814.72
2022-09-03T10:15:47.446Z,100812.31
2022-09-03T10:18:16.578Z,100805.22
2022-09-03T10:20:45.384Z,100808.34
2022-09-03T10:23:13.918Z,100797.56
2022-09-03T10:25:43.133Z,100795.09
2022-09-03T10:28:10.134Z,100796.91
2022-09-03T10:30:48.094Z,100801.47
2022-09-03T10:33:18.630Z,100802.03
2022-09-03T10:35:46.886Z,100799.97
2022-09-03T10:38:17.925Z,100788.72
2022-09-03T10:40:50.413Z,100798.31
2022-09-03T10:43:26.634Z,100791.72
2022-09-03T10:45:58.719Z,100794.09
2022-09-03T10:48:37.343Z,100794.28
2022-09-03T10:51:05.546Z,100801.22
2022-09-03T10:53:39.546Z,100799.19
2022-09-03T10:56:07.483Z,100797.94
2022-09-03T10:58:48.286Z,100792.81
2022-09-03T11:01:18.311Z,100799.22
2022-09-03T11:03:48.435Z,100794.19
2022-09-03T11:06:17.729Z,100792.38
2022-09-03T11:08:46.512Z,100791.88
2022-09-03T11:11:15.579Z,100794.34
2022-09-03T11:13:45.999Z,100789.56
2022-09-03T11:16:15.366Z,100786.84
2022-09-03T11:18:44.545Z,100781.13
2022-09-03T11:21:13.606Z,100784.84
2022-09-03T11:23:41.685Z,100782.47
2022-09-03T11:26:10.094Z,100783.88
2022-09-03T11:28:40.505Z,100782.84
2022-09-03T11:31:13.507Z,100780.47
2022-09-03T11:33:41.747Z,100781.06
2022-09-03T11:36:08.079Z,100775.97
2022-09-03T11:38:36.696Z,100781.22
2022-09-03T11:41:04.585Z,100771.16
2022-09-03T11:43:32.080Z,100768.78
2022-09-03T11:46:02.412Z,100765.25
2022-09-03T11:48:34.017Z,100755.69
2022-09-03T11:51:00.420Z,100757.34
2022-09-03T11:53:32.862Z,100754.06
2022-09-03T11:56:02.223Z,100752.50
2022-09-03T11:58:30.011Z,100764.84
2022-09-03T12:00:56.952Z,100755.06
2022-09-03T12:03:25.006Z,100760.00
2022-09-03T12:05:59.691Z,100753.78
2022-09-03T12:08:43.731Z,100760.31
2022-09-03T12:11:20.522Z,100757.91
2022-09-03T12:13:51.313Z,100758.44
2022-09-03T12:16:32.550Z,100753.53
2022-09-03T12:19:02.775Z,100761.19
2022-09-03T12:21:29.081Z,100756.25
2022-09-03T12:23:58.322Z,100760.94
2022-09-03T12:26:26.991Z,100758.75
2022-09-03T12:28:54.674Z,100754.69
2022-09-03T12:31:22.171Z,100757.69
2022-09-03T12:33:49.390Z,100752.53
2022-09-03T12:36:15.722Z,100760.97
2022-09-03T12:39:09.843Z,100761.28
2022-09-03T12:41:30.268Z,100757.19
2022-09-03T12:43:57.519Z,100756.91
2022-09-03T12:46:30.290Z,100760.19
2022-09-03T12:51:51.332Z,100757.72
2022-09-03T12:54:19.403Z,100742.16
2022-09-03T12:56:51.275Z,100747.59
2022-09-03T12:59:20.500Z,100751.97
2022-09-03T13:01:49.058Z,100748.44
2022-09-03T13:04:17.647Z,100759.91
2022-09-03T13:06:48.098Z,100746.53
2022-09-03T13:09:14.667Z,100753.38
2022-09-03T13:11:40.971Z,100750.06
2022-09-03T13:14:09.843Z,100747.59
2022-09-03T13:16:51.168Z,100751.63
2022-09-03T13:19:21.914Z,100745.63
2022-09-03T13:21:50.560Z,100747.78
2022-09-03T13:24:23.611Z,100740.63
2022-09-03T13:26:56.867Z,100744.94
2022-09-03T13:29:34.255Z,100745.41
2022-09-03T13:32:06.118Z,100740.72
2022-09-03T13:34:36.422Z,100742.63
2022-09-03T13:37:09.983Z,100734.72
2022-09-03T13:39:41.165Z,100735.53
2022-09-03T13:42:12.611Z,100733.56
2022-09-03T13:44:45.087Z,100734.50
2022-09-03T13:47:16.950Z,100736.09
2022-09-03T13:49:47.620Z,100741.53
2022-09-03T13:52:19.198Z,100730.06
2022-09-03T13:54:49.709Z,100728.75
2022-09-03T13:57:24.753Z,100730.16
2022-09-03T13:59:54.736Z,100733.34
2022-09-03T14:02:28.361Z,100750.94
2022-09-03T14:05:06.467Z,100747.59
2022-09-03T14:07:44.378Z,100746.16
2022-09-03T14:10:19.770Z,100745.84
2022-09-03T14:12:49.143Z,100745.28
2022-09-03T14:15:20.479Z,100746.91
2022-09-03T14:17:49.330Z,100747.41
2022-09-03T14:20:19.813Z,100753.69
2022-09-03T14:22:50.905Z,100756.66
2022-09-03T14:25:18.619Z,100753.41
2022-09-03T14:27:45.139Z,100749.38
2022-09-03T14:30:20.184Z,100746.09
2022-09-03T14:32:51.654Z,100757.06
2022-09-03T14:35:32.980Z,100752.19
2022-09-03T14:38:17.224Z,100755.47
2022-09-03T14:40:45.302Z,100752.47
2022-09-03T14:43:18.401Z,100745.94
2022-09-03T14:45:52.282Z,100752.25
2022-09-03T14:48:29.286Z,100754.47
2022-09-03T14:51:05.759Z,100754.50
2022-09-03T14:53:44.760Z,100752.09
2022-09-03T14:56:17.579Z,100754.28
2022-09-03T14:58:54.769Z,100751.09
2022-09-03T15:01:28.311Z,100743.03
2022-09-03T15:04:09.803Z,100751.00
2022-09-03T15:06:43.400Z,100741.53
2022-09-03T15:09:19.416Z,100745.41
2022-09-03T15:11:49.219Z,100738.31
2022-09-03T15:14:18.507Z,100743.47
2022-09-03T15:16:51.215Z,100735.28
2022-09-03T15:19:36.186Z,100739.34
2022-09-03T15:22:08.156Z,100746.94
2022-09-03T15:24:40.212Z,100748.84
2022-09-03T15:27:14.464Z,100747.50
2022-09-03T15:29:48.743Z,100746.44
2022-09-03T15:32:22.558Z,100745.56
2022-09-03T15:34:56.761Z,100748.78
2022-09-03T15:37:25.337Z,100750.94
2022-09-03T15:39:59.119Z,100757.63
2022-09-03T15:42:26.555Z,100754.56
2022-09-03T15:44:54.323Z,100760.75
2022-09-03T15:47:50.823Z,100748.75
2022-09-03T15:50:27.125Z,100750.56
2022-09-03T15:52:56.302Z,100748.06
2022-09-03T15:55:25.322Z,100753.75
2022-09-03T15:57:54.794Z,100746.41
2022-09-03T16:00:21.834Z,100750.53
2022-09-03T16:02:53.341Z,100750.03
2022-09-03T16:05:20.778Z,100750.88
2022-09-03T16:07:58.073Z,100759.09
2022-09-03T16:10:35.574Z,100753.69
2022-09-03T16:13:05.652Z,100758.09
2022-09-03T16:15:35.999Z,100756.22
2022-09-03T16:18:08.102Z,100760.91
2022-09-03T16:20:36.746Z,100757.09
2022-09-03T16:23:06.044Z,100763.06
2022-09-03T16:25:35.561Z,100753.81
2022-09-03T16:28:11.527Z,100759.25
2022-09-03T16:30:50.230Z,100767.69
2022-09-03T16:33:23.903Z,100768.44
2022-09-03T16:35:57.876Z,100767.03
2022-09-03T16:38:28.284Z,100770.50
2022-09-03T16:40:57.295Z,100766.34
2022-09-03T16:43:40.005Z,100767.38
2022-09-03T16:46:13.769Z,100771.97
2022-09-03T16:48:48.960Z,100768.59
2022-09-03T16:51:20.049Z,100774.50
2022-09-03T16:53:54.939Z,100770.06
2022-09-03T16:56:36.151Z,100774.63
2022-09-03T16:59:07.439Z,100775.94
2022-09-03T17:01:45.255Z,100774.75
2022-09-03T17:04:31.012Z,100779.78
2022-09-03T17:07:04.658Z,100773.72
2022-09-03T17:09:38.186Z,100780.94
2022-09-03T17:12:07.721Z,100785.75
2022-09-03T17:14:51.755Z,100779.63
2022-09-03T17:17:23.936Z,100781.97
2022-09-03T17:19:53.433Z,100787.00
2022-09-03T17:22:26.462Z,100783.91
2022-09-03T17:24:53.868Z,100790.56
2022-09-03T17:27:33.304Z,100789.94
2022-09-03T17:30:05.707Z,100788.19
2022-09-03T17:32:37.776Z,100793.81
2022-09-03T17:35:10.335Z,100796.44
2022-09-03T17:37:43.353Z,100796.38
2022-09-03T17:40:21.919Z,100796.50
2022-09-03T17:42:53.840Z,100800.78
2022-09-03T17:45:26.405Z,100797.13
2022-09-03T17:48:02.055Z,100802.25
2022-09-03T17:50:32.308Z,100804.03
2022-09-03T17:53:02.824Z,100808.59
2022-09-03T17:55:31.300Z,100813.91
2022-09-03T17:57:59.939Z,100817.59
2022-09-03T18:00:30.166Z,100818.56
2022-09-03T18:03:00.075Z,100824.38
2022-09-03T18:05:28.718Z,100834.06
2022-09-03T18:08:00.320Z,100835.03
2022-09-03T18:10:30.133Z,100836.00
2022-09-03T18:13:04.294Z,100842.38
2022-09-03T18:15:32.586Z,100839.44
2022-09-03T18:18:02.487Z,100844.06
2022-09-03T18:20:30.723Z,100849.28
2022-09-03T18:23:02.065Z,100854.25
2022-09-03T18:25:29.272Z,100853.81
2022-09-03T18:27:57.619Z,100864.38
2022-09-03T18:30:24.910Z,100864.16
2022-09-03T18:32:51.363Z,100864.94
2022-09-03T18:35:17.745Z,100872.81
2022-09-03T18:37:44.076Z,100880.47
2022-09-03T18:40:16.838Z,100881.88
2022-09-03T18:42:51.267Z,100887.03
2022-09-03T18:45:24.232Z,100881.94
2022-09-03T18:48:04.741Z,100882.25
2022-09-03T18:50:39.173Z,100895.91
2022-09-03T18:53:08.618Z,100884.56
2022-09-03T18:55:43.479Z,100890.25
2022-09-03T18:58:16.571Z,100886.00
2022-09-03T19:00:49.948Z,100891.72
2022-09-03T19:03:22.378Z,100888.28
2022-09-03T19:05:53.776Z,100888.75
2022-09-03T19:08:24.762Z,100894.22
2022-09-03T19:10:55.280Z,100899.28
2022-09-03T19:13:27.494Z,100902.41
2022-09-03T19:15:57.795Z,100906.63
2022-09-03T19:18:31.720Z,100908.56
2022-09-03T19:21:03.211Z,100910.53
2022-09-03T19:23:29.528Z,100908.94
2022-09-03T19:26:02.121Z,100905.06
2022-09-03T19:28:30.015Z,100906.72
2022-09-03T19:31:04.028Z,100911.03
2022-09-03T19:33:35.917Z,100913.28
2022-09-03T19:36:07.682Z,100923.88
2022-09-03T19:38:40.172Z,100919.38
2022-09-03T19:41:17.309Z,100921.44
2022-09-03T19:43:50.055Z,100922.50
2022-09-03T19:46:19.708Z,100923.38
2022-09-03T19:48:52.280Z,100932.38
2022-09-03T19:51:20.759Z,100924.94
2022-09-03T19:53:47.480Z,100936.78
2022-09-03T19:56:22.467Z,100932.19
2022-09-03T19:58:50.618Z,100936.56
2022-09-03T20:01:18.775Z,100934.69
2022-09-03T20:03:45.153Z,100939.25
2022-09-03T20:06:11.739Z,100940.09
2022-09-03T20:08:38.204Z,100942.56
2022-09-03T20:11:05.172Z,100948.41
2022-09-03T20:13:33.411Z,100952.63
2022-09-03T20:16:03.680Z,100956.19
2022-09-03T20:18:38.379Z,100956.88
2022-09-03T20:21:10.748Z,100956.69
2022-09-03T20:23:41.183Z,100948.44
2022-09-03T20:26:15.710Z,100963.00
2022-09-03T20:28:55.982Z,100958.72
2022-09-03T20:31:24.226Z,100959.00
2022-09-03T20:33:57.405Z,100973.56
2022-09-03T20:36:29.252Z,100972.56
2022-09-03T20:39:00.215Z,100969.88
2022-09-03T20:41:32.421Z,100971.75
2022-09-03T20:44:06.784Z,100972.81
2022-09-03T20:46:39.357Z,100974.13
2022-09-03T20:49:09.854Z,100974.78
2022-09-03T20:51:39.267Z,100976.91
2022-09-03T20:54:19.892Z,100983.56
2022-09-03T20:56:51.658Z,100983.19
2022-09-03T20:59:26.091Z,100984.03
2022-09-03T21:01:57.142Z,100980.16
2022-09-03T21:04:34.496Z,100994.03
2022-09-03T21:07:04.359Z,100996.13
2022-09-03T21:09:37.175Z,100999.41
2022-09-03T21:12:07.985Z,101007.09
2022-09-03T21:14:38.778Z,101009.16
2022-09-03T21:17:18.781Z,101001.31
2022-09-03T21:19:56.758Z,101006.47
2022-09-03T21:22:27.267Z,101009.78
2022-09-03T21:24:56.759Z,101012.47
2022-09-03T21:27:24.309Z,101003.78
2022-09-03T21:29:57.519Z,101010.41
2022-09-03T21:32:29.565Z,101009.78
2022-09-03T21:34:58.602Z,101007.69
2022-09-03T21:37:24.935Z,101010.16
2022-09-03T21:39:53.611Z,101001.66
2022-09-03T21:42:24.505Z,101016.59
2022-09-03T21:44:58.912Z,101018.06
2022-09-03T21:47:27.187Z,101018.88
2022-09-03T21:49:58.312Z,101026.34
2022-09-03T21:52:28.799Z,101031.94
2022-09-03T21:54:55.106Z,101032.19
2022-09-03T21:57:28.691Z,101031.34
2022-09-03T22:00:02.707Z,101032.19
2022-09-03T22:02:29.520Z,101026.59
2022-09-03T22:04:56.875Z,101036.75
2022-09-03T22:07:27.122Z,101034.66
2022-09-03T22:09:58.646Z,101035.72
2022-09-03T22:12:28.475Z,101026.19
2022-09-03T22:14:55.187Z,101027.63
2022-09-03T22:17:29.783Z,101037.38
2022-09-03T22:19:56.387Z,101042.16
2022-09-03T22:22:26.451Z,101037.13
2022-09-03T22:24:56.698Z,101051.22
2022-09-03T22:27:27.435Z,101049.13
2022-09-03T22:30:01.741Z,101052.66
2022-09-03T22:32:35.110Z,101053.69
2022-09-03T22:35:17.837Z,101051.19
2022-09-03T22:37:52.604Z,101046.66
2022-09-03T22:40:23.432Z,101047.88
2022-09-03T22:42:59.162Z,101055.34
2022-09-03T22:45:39.021Z,101054.13
2022-09-03T22:48:13.622Z,101055.75
2022-09-03T22:50:44.874Z,101063.22
2022-09-03T22:53:16.603Z,101055.16
2022-09-03T22:55:45.975Z,101054.53
2022-09-03T22:58:14.435Z,101057.63
2022-09-03T23:00:41.988Z,101056.16
2022-09-03T23:03:11.727Z,101056.38
2022-09-03T23:05:44.158Z,101053.25
2022-09-03T23:08:13.108Z,101061.25
2022-09-03T23:10:49.155Z,101060.63
2022-09-03T23:13:16.797Z,101060.63
2022-09-03T23:15:44.950Z,101062.91
2022-09-03T23:18:13.987Z,101061.66
2022-09-03T23:20:42.056Z,101067.88
2022-09-03T23:23:11.879Z,101075.75
2022-09-03T23:25:43.022Z,101071.00
2022-09-03T23:28:11.116Z,101074.28
2022-09-03T23:30:37.479Z,101070.75
2022-09-03T23:33:03.803Z,101070.75
2022-09-03T23:35:43.453Z,101082.53
2022-09-03T23:38:14.898Z,101071.56
2022-09-03T23:40:44.608Z,101072.34
2022-09-03T23:43:19.563Z,101074.00
2022-09-03T23:45:49.440Z,101072.91
2022-09-03T23:48:22.782Z,101074.09
2022-09-03T23:50:57.322Z,101076.53
2022-09-03T23:53:27.881Z,101069.28
2022-09-03T23:56:01.127Z,101067.81
2022-09-03T23:58:33.151Z,101068.16
